createdAt,value
2022-09-12T00:01:49.936Z,4.18
2022-09-12T00:04:16.663Z,4.63
2022-09-12T00:06:43.388Z,5.43
2022-09-12T00:09:13.822Z,5.30
2022-09-12T00:11:43.481Z,5.55
2022-09-12T00:14:12.787Z,5.78
2022-09-12T00:16:40.421Z,5.57
2022-09-12T00:19:08.198Z,6.13
2022-09-12T00:21:36.922Z,5.40
2022-09-12T00:24:04.123Z,4.72
2022-09-12T00:26:30.955Z,4.20
2022-09-12T00:28:57.638Z,4.47
2022-09-12T00:31:25.915Z,3.83
2022-09-12T00:33:55.025Z,4.00
2022-09-12T00:36:24.798Z,4.15
2022-09-12T00:38:52.247Z,4.32
2022-09-12T00:41:37.717Z,4.50
2022-09-12T00:44:10.498Z,4.25
2022-09-12T00:46:53.432Z,4.13
2022-09-12T00:49:34.706Z,4.68
2022-09-12T00:52:27.984Z,3.97
2022-09-12T00:55:26.557Z,5.10
2022-09-12T00:58:02.842Z,4.40
2022-09-12T01:00:30.111Z,4.30
2022-09-12T01:03:09.948Z,4.50
2022-09-12T01:05:41.180Z,4.45
2022-09-12T01:08:08.103Z,3.63
2022-09-12T01:10:37.492Z,4.35
2022-09-12T01:13:07.154Z,4.85
2022-09-12T01:15:35.075Z,4.65
2022-09-12T01:18:13.531Z,4.28
2022-09-12T01:20:43.265Z,4.15
2022-09-12T01:23:25.047Z,3.72
2022-09-12T01:26:09.853Z,4.57
2022-09-12T01:29:03.494Z,3.95
2022-09-12T01:31:36.195Z,3.83
2022-09-12T01:34:02.751Z,3.33
2022-09-12T01:36:35.085Z,3.85
2022-09-12T01:39:09.713Z,3.30
2022-09-12T01:41:54.896Z,3.85
2022-09-12T01:44:48.044Z,3.30
2022-09-12T01:47:39.367Z,3.22
2022-09-12T01:50:18.936Z,3.03
2022-09-12T01:52:56.094Z,3.00
2022-09-12T01:55:31.894Z,3.33
2022-09-12T01:58:19.687Z,3.13
2022-09-12T02:00:55.615Z,2.45
2022-09-12T02:03:31.079Z,3.15
2022-09-12T02:06:08.245Z,2.80
2022-09-12T02:08:47.610Z,1.95
2022-09-12T02:11:14.486Z,3.03
2022-09-12T02:13:47.852Z,3.97
2022-09-12T02:16:18.279Z,3.58
2022-09-12T02:18:50.697Z,4.07
2022-09-12T02:21:20.335Z,5.03
2022-09-12T02:23:52.554Z,5.38
2022-09-12T02:26:34.282Z,5.80
2022-09-12T02:29:01.702Z,5.32
2022-09-12T02:31:44.889Z,4.93
2022-09-12T02:34:23.407Z,3.13
2022-09-12T02:37:03.026Z,3.47
2022-09-12T02:39:29.726Z,3.40
2022-09-12T02:41:59.629Z,3.30
2022-09-12T02:44:28.406Z,3.20
2022-09-12T02:47:07.187Z,3.22
2022-09-12T02:49:33.990Z,4.22
2022-09-12T02:52:02.190Z,3.20
2022-09-12T02:54:30.460Z,2.80
2022-09-12T02:56:57.125Z,2.92
2022-09-12T02:59:25.052Z,2.63
2022-09-12T03:02:15.859Z,2.53
2022-09-12T03:04:54.992Z,2.28
2022-09-12T03:07:59.075Z,2.22
2022-09-12T03:10:34.703Z,1.90
2022-09-12T03:13:13.376Z,2.10
2022-09-12T03:15:52.143Z,2.50
2022-09-12T03:18:24.488Z,2.17
2022-09-12T03:20:57.638Z,2.50
2022-09-12T03:23:49.669Z,2.42
2022-09-12T03:26:31.479Z,2.63
2022-09-12T03:28:59.474Z,2.40
2022-09-12T03:31:26.138Z,3.10
2022-09-12T03:33:52.723Z,2.10
2022-09-12T03:36:28.541Z,3.08
2022-09-12T03:38:55.323Z,3.55
2022-09-12T03:41:22.679Z,3.42
2022-09-12T03:43:49.304Z,3.60
2022-09-12T03:46:16.022Z,3.42
2022-09-12T03:48:42.745Z,4.32
2022-09-12T03:51:28.053Z,3.03
2022-09-12T03:53:54.826Z,3.35
2022-09-12T03:56:21.677Z,4.22
2022-09-12T03:58:48.293Z,3.53
2022-09-12T04:01:17.519Z,3.25
2022-09-12T04:03:46.601Z,3.47
2022-09-12T04:06:16.197Z,4.50
2022-09-12T04:08:44.099Z,3.42
2022-09-12T04:11:15.409Z,3.55
2022-09-12T04:13:43.922Z,3.28
2022-09-12T04:16:12.899Z,3.38
2022-09-12T04:18:40.138Z,4.03
2022-09-12T04:21:09.830Z,3.33
2022-09-12T04:23:36.864Z,3.67
2022-09-12T04:26:06.528Z,2.38
2022-09-12T04:28:34.740Z,2.75
2022-09-12T04:31:04.149Z,2.95
2022-09-12T04:33:30.871Z,2.35
2022-09-12T04:36:02.540Z,2.22
2022-09-12T04:38:29.111Z,1.60
2022-09-12T04:40:57.500Z,1.30
2022-09-12T04:43:24.291Z,1.20
2022-09-12T04:45:51.375Z,1.17
2022-09-12T04:48:18.299Z,2.28
2022-09-12T04:50:44.978Z,1.30
2022-09-12T04:53:11.753Z,0.90
2022-09-12T04:55:38.312Z,1.00
2022-09-12T04:58:05.023Z,1.30
2022-09-12T05:00:31.633Z,0.82
2022-09-12T05:02:58.373Z,1.20
2022-09-12T05:05:25.313Z,0.88
2022-09-12T05:07:52.007Z,0.50
2022-09-12T05:10:18.643Z,0.90
2022-09-12T05:12:45.507Z,0.50
2022-09-12T05:15:12.080Z,0.70
2022-09-12T05:17:38.672Z,1.15
2022-09-12T05:20:05.661Z,0.60
2022-09-12T05:22:32.361Z,0.80
2022-09-12T05:24:58.947Z,0.90
2022-09-12T05:27:25.568Z,0.82
2022-09-12T05:29:52.195Z,1.48
2022-09-12T05:32:18.796Z,1.10
2022-09-12T05:34:45.499Z,1.00
2022-09-12T05:37:12.695Z,1.20
2022-09-12T05:39:39.458Z,0.88
2022-09-12T05:42:06.333Z,0.65
2022-09-12T05:44:33.494Z,0.70
2022-09-12T05:47:00.196Z,1.15
2022-09-12T05:49:26.833Z,1.10
2022-09-12T05:51:53.408Z,0.95
2022-09-12T05:54:20.767Z,1.08
2022-09-12T05:56:48.214Z,1.50
2022-09-12T05:59:20.640Z,3.35
2022-09-12T06:01:48.578Z,2.10
2022-09-12T06:04:15.851Z,0.68
2022-09-12T06:06:47.171Z,0.73
2022-09-12T06:09:15.804Z,1.45
2022-09-12T06:11:43.792Z,1.40
2022-09-12T06:14:12.767Z,1.25
2022-09-12T06:16:40.330Z,0.93
2022-09-12T06:19:13.292Z,1.30
2022-09-12T06:21:40.151Z,1.10
2022-09-12T06:24:07.658Z,1.60
2022-09-12T06:26:34.731Z,1.40
2022-09-12T06:29:01.874Z,1.23
2022-09-12T06:31:33.985Z,1.20
2022-09-12T06:34:04.099Z,0.80
2022-09-12T06:36:33.950Z,1.20
2022-09-12T06:39:04.590Z,0.90
2022-09-12T06:41:32.613Z,1.25
2022-09-12T06:44:00.396Z,1.00
2022-09-12T06:46:28.098Z,0.70
2022-09-12T06:49:00.120Z,0.90
2022-09-12T06:51:28.113Z,1.80
2022-09-12T06:53:56.988Z,1.30
2022-09-12T06:56:26.759Z,1.48
2022-09-12T06:58:55.623Z,1.13
2022-09-12T07:01:31.286Z,0.50
2022-09-12T07:04:00.214Z,1.80
2022-09-12T07:06:32.289Z,0.75
2022-09-12T07:09:01.300Z,0.60
2022-09-12T07:11:33.628Z,0.80
2022-09-12T07:14:02.237Z,0.85
2022-09-12T07:16:30.394Z,0.70
2022-09-12T07:19:02.499Z,0.90
2022-09-12T07:21:30.501Z,1.27
2022-09-12T07:23:58.175Z,1.10
2022-09-12T07:26:27.356Z,0.95
2022-09-12T07:29:03.940Z,1.50
2022-09-12T07:31:43.131Z,1.00
2022-09-12T07:34:10.063Z,0.90
2022-09-12T07:36:37.289Z,0.85
2022-09-12T07:39:04.170Z,1.33
2022-09-12T07:41:34.083Z,1.25
2022-09-12T07:44:02.412Z,1.80
2022-09-12T07:46:30.581Z,1.73
2022-09-12T07:48:59.338Z,1.35
2022-09-12T07:51:27.771Z,3.78
2022-09-12T07:53:56.435Z,1.52
2022-09-12T07:56:29.385Z,2.90
2022-09-12T07:58:57.006Z,2.60
2022-09-12T08:01:24.147Z,1.58
2022-09-12T08:03:54.948Z,1.75
2022-09-12T08:06:26.775Z,1.95
2022-09-12T08:08:55.546Z,0.95
2022-09-12T08:11:23.190Z,0.95
2022-09-12T08:13:55.394Z,1.02
2022-09-12T08:16:25.120Z,0.80
2022-09-12T08:18:52.024Z,1.35
2022-09-12T08:21:24.160Z,1.08
2022-09-12T08:23:59.266Z,1.20
2022-09-12T08:26:26.097Z,0.70
2022-09-12T08:28:53.688Z,0.80
2022-09-12T08:31:22.137Z,0.80
2022-09-12T08:33:49.277Z,0.70
2022-09-12T08:36:24.431Z,0.60
2022-09-12T08:38:59.871Z,0.50
2022-09-12T08:41:34.966Z,0.50
2022-09-12T08:44:24.932Z,0.50
2022-09-12T08:47:03.829Z,0.50
2022-09-12T08:49:36.423Z,1.30
2022-09-12T08:52:11.751Z,0.80
2022-09-12T08:54:39.929Z,0.60
2022-09-12T08:57:10.070Z,0.60
2022-09-12T08:59:45.130Z,1.23
2022-09-12T09:02:30.688Z,0.68
2022-09-12T09:05:39.525Z,1.10
2022-09-12T09:08:22.053Z,0.93
2022-09-12T09:10:53.179Z,0.60
2022-09-12T09:14:05.468Z,0.80
2022-09-12T09:16:36.790Z,0.60
2022-09-12T09:19:11.398Z,0.90
2022-09-12T09:21:46.983Z,1.40
2022-09-12T09:24:19.458Z,1.20
2022-09-12T09:27:01.589Z,1.00
2022-09-12T09:29:35.893Z,0.70
2022-09-12T09:32:09.954Z,0.80
2022-09-12T09:34:39.203Z,0.88
2022-09-12T09:37:08.757Z,0.70
2022-09-12T09:39:56.903Z,0.77
2022-09-12T09:43:05.200Z,0.88
2022-09-12T09:45:31.947Z,1.30
2022-09-12T09:48:06.269Z,0.85
2022-09-12T09:50:32.973Z,1.02
2022-09-12T09:53:02.286Z,0.70
2022-09-12T09:55:38.334Z,1.00
2022-09-12T09:58:04.986Z,1.00
2022-09-12T10:00:36.825Z,1.90
2022-09-12T10:03:08.274Z,0.90
2022-09-12T10:05:48.955Z,0.98
2022-09-12T10:08:35.352Z,0.80
2022-09-12T10:11:18.785Z,0.70
2022-09-12T10:13:54.661Z,1.10
2022-09-12T10:16:22.275Z,0.80
2022-09-12T10:18:53.470Z,0.80
2022-09-12T10:21:23.592Z,1.13
2022-09-12T10:24:03.772Z,1.30
2022-09-12T10:26:40.434Z,1.27
2022-09-12T10:29:15.261Z,1.80
2022-09-12T10:31:47.520Z,1.48
2022-09-12T10:34:46.221Z,1.40
2022-09-12T10:37:23.504Z,1.10
2022-09-12T10:39:57.200Z,1.48
2022-09-12T10:42:47.173Z,1.08
2022-09-12T10:45:22.172Z,1.05
2022-09-12T10:47:49.567Z,1.45
2022-09-12T10:50:32.410Z,1.50
2022-09-12T10:53:24.314Z,2.00
2022-09-12T10:56:06.894Z,2.25
2022-09-12T10:58:58.492Z,1.92
2022-09-12T11:01:40.707Z,1.85
2022-09-12T11:04:29.220Z,2.45
2022-09-12T11:07:01.894Z,1.17
2022-09-12T11:09:54.774Z,1.67
2022-09-12T11:12:52.262Z,1.50
2022-09-12T11:15:25.433Z,1.33
2022-09-12T11:18:10.174Z,1.50
2022-09-12T11:21:05.315Z,1.20
2022-09-12T11:23:44.097Z,1.40
2022-09-12T11:26:40.932Z,1.88
2022-09-12T11:29:38.749Z,1.88
2022-09-12T11:32:11.087Z,1.70
2022-09-12T11:34:56.337Z,2.97
2022-09-12T11:37:41.372Z,2.70
2022-09-12T11:40:30.847Z,2.28
2022-09-12T11:43:32.375Z,3.13
2022-09-12T11:46:10.334Z,1.67
2022-09-12T11:48:56.694Z,1.60
2022-09-12T11:51:52.732Z,3.00
2022-09-12T11:54:36.202Z,1.95
2022-09-12T11:57:18.592Z,2.13
2022-09-12T11:59:52.866Z,1.75
2022-09-12T12:02:32.867Z,1.00
2022-09-12T12:05:22.023Z,1.58
2022-09-12T12:07:54.940Z,1.20
2022-09-12T12:10:26.436Z,1.20
2022-09-12T12:12:56.078Z,1.00
2022-09-12T12:15:25.494Z,1.10
2022-09-12T12:18:29.411Z,0.82
2022-09-12T12:20:59.626Z,0.70
2022-09-12T12:23:31.715Z,0.70
2022-09-12T12:26:00.969Z,0.80
2022-09-12T12:28:42.807Z,0.88
2022-09-12T12:31:11.396Z,0.70
2022-09-12T12:33:38.047Z,1.00
2022-09-12T12:36:08.722Z,0.70
2022-09-12T12:38:40.507Z,0.93
2022-09-12T12:41:19.672Z,1.05
2022-09-12T12:43:51.602Z,0.80
2022-09-12T12:46:24.156Z,0.60
2022-09-12T12:49:09.587Z,0.60
2022-09-12T12:51:49.799Z,0.60
2022-09-12T12:54:34.855Z,0.85
2022-09-12T12:57:15.369Z,0.90
2022-09-12T12:59:52.760Z,0.85
2022-09-12T13:02:37.085Z,0.60
2022-09-12T13:05:08.002Z,0.70
2022-09-12T13:07:40.282Z,1.00
2022-09-12T13:10:08.206Z,0.93
2022-09-12T13:12:44.031Z,1.00
2022-09-12T13:15:48.295Z,1.58
2022-09-12T13:18:21.917Z,1.55
2022-09-12T13:20:59.861Z,1.67
2022-09-12T13:23:29.956Z,1.13
2022-09-12T13:25:59.099Z,0.98
2022-09-12T13:28:27.139Z,0.85
2022-09-12T13:30:57.024Z,0.93
2022-09-12T13:33:51.071Z,1.10
2022-09-12T13:36:40.946Z,0.73
2022-09-12T13:39:28.953Z,1.23
2022-09-12T13:42:13.825Z,1.60
2022-09-12T13:44:48.287Z,1.48
2022-09-12T13:47:28.319Z,1.30
2022-09-12T13:49:56.226Z,1.92
2022-09-12T13:52:26.363Z,1.33
2022-09-12T13:54:56.539Z,2.35
2022-09-12T13:57:38.365Z,2.47
2022-09-12T14:00:13.555Z,2.28
2022-09-12T14:02:40.791Z,2.25
2022-09-12T14:05:22.581Z,2.60
2022-09-12T14:07:55.315Z,2.97
2022-09-12T14:10:35.501Z,2.03
2022-09-12T14:13:05.594Z,2.72
2022-09-12T14:15:36.341Z,2.25
2022-09-12T14:18:05.418Z,2.40
2022-09-12T14:20:37.032Z,2.10
2022-09-12T14:23:15.144Z,3.00
2022-09-12T14:25:47.723Z,1.70
2022-09-12T14:28:23.649Z,2.85
2022-09-12T14:31:05.939Z,1.77
2022-09-12T14:33:46.929Z,2.70
2022-09-12T14:36:22.297Z,2.10
2022-09-12T14:38:53.046Z,2.03
2022-09-12T14:41:27.876Z,1.92
2022-09-12T14:43:58.397Z,1.48
2022-09-12T14:46:31.934Z,1.73
2022-09-12T14:49:29.111Z,2.00
2022-09-12T14:51:58.365Z,2.13
2022-09-12T14:54:27.721Z,2.30
2022-09-12T14:56:59.572Z,1.83
2022-09-12T14:59:35.241Z,2.13
2022-09-12T15:02:14.120Z,2.63
2022-09-12T15:04:43.257Z,1.80
2022-09-12T15:07:47.928Z,1.33
2022-09-12T15:10:14.512Z,1.70
2022-09-12T15:12:41.092Z,1.60
2022-09-12T15:15:15.555Z,1.88
2022-09-12T15:17:42.423Z,2.00
2022-09-12T15:20:11.772Z,2.60
2022-09-12T15:22:39.478Z,2.10
2022-09-12T15:25:06.985Z,2.85
2022-09-12T15:27:33.624Z,2.83
2022-09-12T15:30:00.552Z,2.30
2022-09-12T15:32:30.227Z,2.13
2022-09-12T15:34:56.952Z,2.25
2022-09-12T15:37:24.523Z,3.00
2022-09-12T15:39:51.962Z,1.70
2022-09-12T15:42:27.860Z,2.55
2022-09-12T15:44:54.570Z,2.20
2022-09-12T15:47:25.143Z,3.08
2022-09-12T15:49:51.843Z,2.70
2022-09-12T15:52:18.536Z,1.65
2022-09-12T15:54:45.182Z,2.28
2022-09-12T15:57:12.315Z,2.63
2022-09-12T15:59:38.939Z,2.55
2022-09-12T16:02:05.991Z,3.05
2022-09-12T16:04:33.227Z,1.88
2022-09-12T16:06:59.848Z,2.20
2022-09-12T16:09:26.406Z,2.80
2022-09-12T16:11:53.161Z,2.45
2022-09-12T16:14:20.559Z,2.70
2022-09-12T16:16:59.116Z,2.40
2022-09-12T16:19:26.195Z,1.85
2022-09-12T16:21:52.926Z,2.08
2022-09-12T16:24:19.782Z,2.45
2022-09-12T16:26:46.439Z,1.77
2022-09-12T16:29:13.729Z,2.20
2022-09-12T16:31:40.730Z,2.70
2022-09-12T16:34:07.553Z,2.67
2022-09-12T16:36:34.616Z,2.55
2022-09-12T16:39:01.321Z,2.83
2022-09-12T16:41:27.946Z,2.40
2022-09-12T16:43:55.773Z,3.35
2022-09-12T16:46:26.077Z,2.67
2022-09-12T16:48:55.101Z,3.20
2022-09-12T16:51:28.003Z,2.60
2022-09-12T16:53:55.528Z,2.53
2022-09-12T16:56:23.210Z,2.83
2022-09-12T16:58:50.359Z,2.55
2022-09-12T17:01:20.104Z,2.65
2022-09-12T17:03:47.252Z,2.75
2022-09-12T17:06:16.757Z,1.50
2022-09-12T17:08:46.579Z,2.00
2022-09-12T17:11:15.862Z,2.92
2022-09-12T17:14:04.044Z,2.70
2022-09-12T17:16:33.835Z,2.80
2022-09-12T17:19:00.897Z,2.70
2022-09-12T17:21:28.075Z,3.13
2022-09-12T17:23:55.025Z,2.80
2022-09-12T17:26:22.066Z,2.70
2022-09-12T17:28:48.752Z,2.20
2022-09-12T17:31:15.893Z,2.70
2022-09-12T17:33:43.387Z,2.45
2022-09-12T17:36:15.034Z,2.40
2022-09-12T17:38:43.054Z,2.35
2022-09-12T17:41:18.152Z,2.25
2022-09-12T17:43:46.489Z,2.55
2022-09-12T17:46:14.452Z,2.50
2022-09-12T17:48:41.787Z,2.10
2022-09-12T17:51:13.980Z,4.47
2022-09-12T17:53:42.168Z,2.28
2022-09-12T17:56:10.735Z,2.15
2022-09-12T17:58:38.119Z,2.22
2022-09-12T18:01:32.651Z,1.98
2022-09-12T18:04:01.052Z,2.13
2022-09-12T18:06:28.503Z,1.80
2022-09-12T18:08:55.910Z,1.88
2022-09-12T18:11:22.555Z,2.45
2022-09-12T18:13:49.364Z,1.70
2022-09-12T18:16:16.620Z,2.33
2022-09-12T18:18:43.311Z,2.00
2022-09-12T18:21:12.167Z,1.70
2022-09-12T18:23:39.311Z,1.67
2022-09-12T18:26:08.441Z,2.00
2022-09-12T18:28:37.937Z,1.60
2022-09-12T18:31:09.777Z,2.00
2022-09-12T18:33:36.882Z,1.70
2022-09-12T18:36:08.469Z,2.50
2022-09-12T18:38:35.307Z,2.10
2022-09-12T18:41:19.944Z,1.80
2022-09-12T18:43:47.025Z,1.40
2022-09-12T18:46:16.695Z,1.48
2022-09-12T18:48:45.092Z,1.80
2022-09-12T18:51:14.762Z,1.25
2022-09-12T18:53:43.058Z,2.67
2022-09-12T18:56:14.282Z,1.17
2022-09-12T18:58:42.811Z,1.48
2022-09-12T19:01:13.923Z,1.25
2022-09-12T19:03:40.846Z,4.82
2022-09-12T19:06:17.733Z,2.15
2022-09-12T19:08:45.286Z,1.13
2022-09-12T19:11:12.431Z,1.35
2022-09-12T19:13:43.035Z,1.50
2022-09-12T19:16:13.397Z,1.40
2022-09-12T19:18:40.670Z,1.40
2022-09-12T19:21:11.011Z,2.10
2022-09-12T19:23:37.698Z,1.35
2022-09-12T19:26:07.855Z,1.52
2022-09-12T19:28:35.139Z,1.30
2022-09-12T19:31:11.060Z,1.10
2022-09-12T19:33:38.743Z,1.10
2022-09-12T19:36:21.969Z,2.13
2022-09-12T19:38:55.154Z,1.08
2022-09-12T19:41:21.790Z,1.10
2022-09-12T19:43:48.401Z,1.20
2022-09-12T19:46:22.867Z,1.20
2022-09-12T19:48:50.454Z,1.30
2022-09-12T19:51:17.872Z,1.40
2022-09-12T19:53:45.276Z,0.80
2022-09-12T19:56:13.435Z,0.90
2022-09-12T19:58:45.586Z,1.20
2022-09-12T20:01:18.347Z,0.95
2022-09-12T20:03:45.930Z,1.10
2022-09-12T20:06:14.891Z,1.33
2022-09-12T20:08:45.027Z,1.40
2022-09-12T20:11:17.995Z,1.40
2022-09-12T20:13:46.008Z,1.10
2022-09-12T20:16:21.690Z,1.25
2022-09-12T20:18:54.047Z,1.00
2022-09-12T20:21:24.948Z,0.90
2022-09-12T20:23:52.102Z,1.05
2022-09-12T20:26:20.523Z,1.73
2022-09-12T20:28:47.841Z,1.10
2022-09-12T20:31:18.677Z,0.93
2022-09-12T20:33:49.839Z,1.17
2022-09-12T20:36:20.232Z,1.10
2022-09-12T20:38:58.164Z,1.10
2022-09-12T20:41:27.269Z,1.00
2022-09-12T20:43:55.719Z,1.08
2022-09-12T20:46:24.197Z,1.05
2022-09-12T20:48:52.081Z,1.50
2022-09-12T20:51:20.231Z,1.02
2022-09-12T20:53:50.558Z,1.40
2022-09-12T20:56:18.191Z,1.17
2022-09-12T20:58:44.994Z,1.17
2022-09-12T21:01:13.882Z,1.15
2022-09-12T21:03:42.228Z,1.10
2022-09-12T21:06:10.237Z,0.82
2022-09-12T21:08:37.622Z,1.40
2022-09-12T21:11:05.622Z,1.33
2022-09-12T21:13:32.373Z,1.10
2022-09-12T21:16:07.417Z,1.38
2022-09-12T21:18:35.399Z,0.90
2022-09-12T21:21:02.848Z,1.42
2022-09-12T21:23:30.171Z,1.00
2022-09-12T21:25:58.631Z,1.25
2022-09-12T21:28:25.272Z,1.42
2022-09-12T21:30:52.335Z,1.10
2022-09-12T21:33:20.778Z,0.95
2022-09-12T21:35:48.204Z,1.00
2022-09-12T21:38:16.008Z,1.48
2022-09-12T21:40:43.163Z,0.90
2022-09-12T21:43:12.786Z,0.80
2022-09-12T21:45:41.081Z,0.90
2022-09-12T21:48:08.107Z,1.40
2022-09-12T21:50:39.438Z,1.00
2022-09-12T21:53:06.000Z,1.02
2022-09-12T21:55:33.589Z,1.23
2022-09-12T21:58:00.285Z,0.95
2022-09-12T22:00:26.899Z,1.20
2022-09-12T22:02:53.893Z,1.40
2022-09-12T22:05:21.352Z,1.50
2022-09-12T22:07:47.953Z,1.30
2022-09-12T22:10:15.353Z,1.30
2022-09-12T22:12:46.064Z,1.00
2022-09-12T22:15:38.915Z,1.17
2022-09-12T22:18:00.691Z,1.58
2022-09-12T22:20:27.429Z,1.17
2022-09-12T22:23:12.632Z,1.50
2022-09-12T22:25:39.730Z,1.45
2022-09-12T22:28:06.358Z,1.17
2022-09-12T22:30:33.114Z,1.30
2022-09-12T22:32:59.869Z,1.20
2022-09-12T22:35:26.395Z,1.30
2022-09-12T22:37:53.099Z,1.45
2022-09-12T22:40:19.999Z,1.95
2022-09-12T22:42:46.618Z,1.23
2022-09-12T22:45:13.336Z,1.00
2022-09-12T22:47:39.954Z,1.08
2022-09-12T22:50:07.240Z,1.20
2022-09-12T22:52:33.958Z,1.05
2022-09-12T22:55:00.573Z,1.10
2022-09-12T22:57:27.236Z,1.30
2022-09-12T22:59:54.225Z,1.13
2022-09-12T23:02:39.231Z,1.20
2022-09-12T23:05:06.367Z,0.90
2022-09-12T23:07:33.594Z,1.02
2022-09-12T23:10:00.318Z,1.10
2022-09-12T23:12:27.287Z,1.13
2022-09-12T23:14:53.901Z,1.00
2022-09-12T23:17:20.616Z,1.13
2022-09-12T23:19:47.289Z,1.15
2022-09-12T23:22:14.556Z,1.10
2022-09-12T23:24:41.166Z,1.10
2022-09-12T23:27:07.861Z,1.13
2022-09-12T23:29:35.682Z,1.00
2022-09-12T23:32:04.155Z,1.38
2022-09-12T23:34:31.039Z,1.20
2022-09-12T23:36:57.651Z,1.10
2022-09-12T23:39:24.377Z,1.40
2022-09-12T23:41:52.072Z,1.20
2022-09-12T23:44:19.038Z,1.27
2022-09-12T23:46:45.838Z,1.00
2022-09-12T23:49:12.653Z,1.10
2022-09-12T23:51:39.738Z,1.15
2022-09-12T23:54:06.521Z,1.23
2022-09-12T23:56:33.114Z,1.02
2022-09-12T23:58:59.675Z,1.27
